Time;durP1;ratioP1;P1;durP2;ratioP2;P2;SDS_P1;SDS_P2;PMS_P1;PMS_P2;Temp;Humidity;BMP_temperature;BMP_pressure;BME280_temperature;BME280_humidity;BME280_pressure;Samples;Min_cycle;Max_cycle;Signal;HPM_P1;HPM_P2
2022/01/16 00:00:49;;;;;;;;;74.00;53.33;;;;;6.29;63.84;102334.94;5061546;28;61792;-73
2022/01/16 00:05:58;;;;;;;;;67.33;48.33;;;;;6.43;63.35;102323.09;5062311;28;61840;-73
2022/01/16 00:08:24;;;;;;;;;80.33;54.67;;;;;6.40;63.16;102315.00;5076911;28;63619;-73
2022/01/16 00:10:49;;;;;;;;;67.33;46.00;;;;;6.43;63.06;102312.66;5061306;28;61927;-73
2022/01/16 00:13:15;;;;;;;;;61.67;44.00;;;;;6.46;63.37;102307.69;5061859;28;61893;-73
2022/01/16 00:15:44;;;;;;;;;66.33;50.33;;;;;6.40;62.63;102334.94;5061510;28;61769;-73
2022/01/16 00:18:24;;;;;;;;;72.00;54.67;;;;;6.24;63.15;102337.94;5076876;28;64976;-73
2022/01/16 00:20:50;;;;;;;;;77.33;50.67;;;;;6.12;63.37;102336.06;5064411;28;61813;-73
2022/01/16 00:23:23;;;;;;;;;76.00;51.33;;;;;6.10;63.68;102327.19;5065328;28;61841;-73
2022/01/16 00:25:53;;;;;;;;;80.67;54.33;;;;;6.07;63.55;102329.56;5064954;28;62116;-73
2022/01/16 00:28:19;;;;;;;;;73.33;54.33;;;;;6.05;63.87;102346.75;5064712;28;61927;-73
2022/01/16 00:30:46;;;;;;;;;67.00;51.00;;;;;6.17;63.87;102359.03;5064697;28;61956;-73
2022/01/16 00:33:11;;;;;;;;;76.67;48.67;;;;;6.11;63.40;102377.66;5065283;28;61921;-73
2022/01/16 00:35:37;;;;;;;;;71.67;51.33;;;;;6.02;63.54;102374.22;5074338;28;61949;-73
2022/01/16 00:38:04;;;;;;;;;66.00;50.67;;;;;6.01;63.77;102364.59;5044078;28;62156;-73
2022/01/16 00:40:30;;;;;;;;;73.33;56.33;;;;;6.01;63.95;102342.03;5044585;28;62097;-73
2022/01/16 00:42:57;;;;;;;;;66.00;53.00;;;;;5.93;63.79;102307.47;5044732;28;62608;-73
2022/01/16 00:45:23;;;;;;;;;72.67;49.00;;;;;5.94;63.53;102318.81;5044679;28;61889;-73
2022/01/16 00:47:49;;;;;;;;;77.00;50.33;;;;;5.86;63.71;102327.63;5044204;28;61856;-73
2022/01/16 00:50:14;;;;;;;;;71.67;47.67;;;;;5.86;64.24;102323.34;5044733;28;61966;-73
2022/01/16 00:52:40;;;;;;;;;68.67;48.00;;;;;6.03;63.56;102345.69;5044798;28;61857;-73
2022/01/16 00:55:06;;;;;;;;;63.00;42.67;;;;;5.92;64.10;102342.13;5044591;28;61865;-73
2022/01/16 00:57:31;;;;;;;;;76.67;51.00;;;;;5.88;63.97;102350.44;5044009;28;62095;-73
2022/01/16 00:59:57;;;;;;;;;72.00;49.33;;;;;5.89;64.27;102341.88;5044398;28;62092;-73
2022/01/16 01:02:23;;;;;;;;;67.67;47.67;;;;;5.84;64.18;102394.34;5044724;28;62029;-73
2022/01/16 01:04:49;;;;;;;;;76.33;51.00;;;;;5.81;64.94;102397.59;5044730;28;61733;-73
2022/01/16 01:07:16;;;;;;;;;61.33;45.67;;;;;5.85;65.09;102397.09;5044057;28;62827;-73
2022/01/16 01:09:42;;;;;;;;;76.00;51.67;;;;;6.09;64.99;102402.69;5044485;28;61769;-74
2022/01/16 01:12:09;;;;;;;;;74.33;50.67;;;;;6.30;64.25;102391.53;5060024;28;61937;-74
2022/01/16 01:14:41;;;;;;;;;72.00;51.67;;;;;6.42;63.38;102411.63;5044859;28;61930;-74
2022/01/16 01:17:09;;;;;;;;;77.33;55.67;;;;;6.48;63.68;102368.72;5043793;28;61730;-74
2022/01/16 01:19:35;;;;;;;;;61.00;41.00;;;;;6.51;63.78;102378.50;5044405;28;62107;-74
2022/01/16 01:22:05;;;;;;;;;73.67;51.33;;;;;6.56;63.90;102361.59;5059705;28;61851;-74
2022/01/16 01:24:33;;;;;;;;;71.33;51.67;;;;;6.53;63.78;102323.09;5044485;28;61726;-74
2022/01/16 01:29:28;;;;;;;;;81.33;51.00;;;;;6.45;64.24;102299.72;5044160;28;61815;-74
2022/01/16 01:31:53;;;;;;;;;61.67;48.33;;;;;6.56;64.16;102278.09;5043742;28;61789;-74
2022/01/16 01:34:19;;;;;;;;;73.00;51.00;;;;;6.70;64.39;102298.41;5044346;28;61782;-74
2022/01/16 01:36:48;;;;;;;;;66.00;48.33;;;;;6.82;63.91;102316.81;5058901;28;61833;-74
2022/01/16 01:39:17;;;;;;;;;70.33;50.67;;;;;6.86;63.79;102349.31;5063874;28;61897;-74
2022/01/16 01:41:43;;;;;;;;;76.67;50.33;;;;;6.90;63.91;102352.31;5064345;28;61707;-74
2022/01/16 01:52:21;;;;;;;;;69.67;48.00;;;;;6.85;64.51;102384.91;5063833;28;62072;-74
2022/01/16 01:54:47;;;;;;;;;73.00;55.00;;;;;6.87;64.83;102396.41;5064093;28;62108;-74
2022/01/16 01:57:13;;;;;;;;;60.00;47.00;;;;;7.00;64.59;102400.97;5062964;28;62794;-74
2022/01/16 01:59:39;;;;;;;;;76.00;49.00;;;;;6.99;64.79;102391.34;5079396;28;61865;-74
2022/01/16 02:02:06;;;;;;;;;69.00;51.67;;;;;6.94;64.97;102403.06;5061829;28;61819;-74
2022/01/16 02:04:32;;;;;;;;;66.00;47.00;;;;;6.93;65.21;102432.56;5064127;28;61833;-74
2022/01/16 02:06:58;;;;;;;;;78.67;53.00;;;;;7.01;65.06;102425.41;5062931;28;62862;-74
2022/01/16 02:09:24;;;;;;;;;62.67;49.00;;;;;7.06;64.88;102431.91;5063542;28;62015;-74
2022/01/16 02:11:51;;;;;;;;;74.00;54.67;;;;;7.09;65.24;102437.38;5063712;28;61952;-74
2022/01/16 02:14:31;;;;;;;;;64.67;47.00;;;;;7.05;65.32;102444.06;5063628;28;62163;-74
2022/01/16 02:28:09;;;;;;;;;74.67;48.00;;;;;7.16;64.89;102439.75;5062766;28;61933;-74
2022/01/16 02:35:42;;;;;;;;;68.67;46.67;;;;;7.31;64.76;102409.69;5056929;28;61928;-74
2022/01/16 02:38:12;;;;;;;;;65.67;47.00;;;;;7.37;65.02;102415.44;5042178;28;62176;-74
2022/01/16 02:40:41;;;;;;;;;69.33;50.00;;;;;7.38;64.72;102412.03;5042929;28;62007;-74
2022/01/16 02:43:06;;;;;;;;;69.33;43.67;;;;;7.43;64.39;102407.19;5042388;28;61985;-73
2022/01/16 02:45:35;;;;;;;;;65.67;49.33;;;;;7.46;64.66;102390.88;5042775;28;61974;-74
2022/01/16 02:48:05;;;;;;;;;65.67;51.00;;;;;7.52;64.46;102393.97;5042281;28;61849;-74
2022/01/16 02:50:32;;;;;;;;;67.33;49.33;;;;;7.55;64.07;102386.41;5058114;28;61803;-74
2022/01/16 02:52:58;;;;;;;;;66.33;51.67;;;;;7.57;63.93;102390.06;5058485;28;62150;-74
2022/01/16 02:55:23;;;;;;;;;80.00;54.67;;;;;7.58;63.90;102376.19;5042331;28;61786;-74
2022/01/16 02:57:50;;;;;;;;;75.67;52.67;;;;;7.62;63.96;102374.75;5042252;28;62537;-74
2022/01/16 03:00:16;;;;;;;;;71.33;49.67;;;;;7.62;63.42;102372.13;5042492;28;62034;-74
2022/01/16 03:02:42;;;;;;;;;74.33;50.67;;;;;7.62;63.47;102377.34;5042841;28;62039;-74
2022/01/16 03:05:08;;;;;;;;;68.33;49.33;;;;;7.65;63.52;102374.97;5042952;28;61790;-74
2022/01/16 03:07:33;;;;;;;;;72.00;49.33;;;;;7.68;63.62;102381.38;5057373;28;64265;-74
2022/01/16 03:13:04;;;;;;;;;71.00;50.67;;;;;7.60;63.25;102369.38;5042648;28;61787;-74
2022/01/16 03:15:30;;;;;;;;;70.33;54.67;;;;;7.60;63.64;102366.78;5042531;28;62087;-74
2022/01/16 03:23:18;;;;;;;;;74.33;50.67;;;;;7.68;63.65;102362.19;5042710;28;61766;-73
2022/01/16 03:25:44;;;;;;;;;75.33;54.00;;;;;7.72;63.63;102370.41;5057781;28;61898;-74
2022/01/16 03:28:10;;;;;;;;;70.00;50.67;;;;;7.74;63.15;102368.81;5041691;28;61999;-74
2022/01/16 03:30:35;;;;;;;;;70.00;51.67;;;;;7.77;63.58;102370.75;5040777;28;61901;-74
2022/01/16 03:33:01;;;;;;;;;70.67;52.00;;;;;7.74;63.51;102378.38;5042493;28;61854;-74
2022/01/16 03:35:26;;;;;;;;;69.67;51.00;;;;;7.69;63.67;102371.84;5047012;28;61939;-74
2022/01/16 03:37:52;;;;;;;;;70.33;48.33;;;;;7.62;63.56;102373.03;5061605;28;62115;-74
2022/01/16 03:40:20;;;;;;;;;77.33;55.33;;;;;7.58;64.00;102357.88;5061967;28;61971;-74
2022/01/16 03:42:46;;;;;;;;;66.67;47.67;;;;;7.65;64.44;102357.63;5062199;28;61797;-74
2022/01/16 03:45:11;;;;;;;;;73.67;53.33;;;;;7.68;63.49;102354.34;5078050;28;62191;-73
2022/01/16 03:47:37;;;;;;;;;77.33;52.33;;;;;7.66;63.72;102358.53;5061363;28;61709;-73
2022/01/16 03:50:04;;;;;;;;;70.00;51.33;;;;;7.71;63.95;102371.19;5077835;28;61964;-73
2022/01/16 03:52:30;;;;;;;;;78.00;52.33;;;;;7.72;64.07;102382.56;5061992;28;62274;-74
2022/01/16 03:54:55;;;;;;;;;72.67;53.00;;;;;7.73;64.14;102384.38;5077587;28;61858;-74
2022/01/16 03:57:21;;;;;;;;;67.00;49.33;;;;;7.75;63.96;102377.56;5061189;28;62597;-74
2022/01/16 03:59:47;;;;;;;;;83.33;54.67;;;;;7.75;63.59;102388.03;5061964;28;61916;-74
2022/01/16 04:02:12;;;;;;;;;73.67;50.33;;;;;7.78;63.86;102383.06;5061803;28;62013;-74
2022/01/16 04:04:38;;;;;;;;;73.00;48.00;;;;;7.79;63.70;102390.09;5061980;28;61832;-74
2022/01/16 04:07:05;;;;;;;;;65.33;49.00;;;;;7.80;63.65;102391.94;5076876;28;63500;-74
2022/01/16 04:09:30;;;;;;;;;72.67;50.67;;;;;7.81;63.57;102395.47;5061837;28;61985;-74
2022/01/16 04:11:57;;;;;;;;;68.33;48.33;;;;;7.84;64.20;102393.09;5077561;28;62062;-74
2022/01/16 04:17:13;;;;;;;;;70.33;52.00;;;;;7.80;63.53;102415.47;5060959;28;61831;-74
2022/01/16 04:19:39;;;;;;;;;73.33;50.33;;;;;7.75;64.21;102420.28;5061522;28;61746;-74
2022/01/16 04:22:04;;;;;;;;;74.00;54.00;;;;;7.70;63.71;102429.47;5061752;28;62156;-74
2022/01/16 04:24:30;;;;;;;;;75.33;54.00;;;;;7.63;63.96;102423.63;5077721;28;62149;-74
2022/01/16 04:26:55;;;;;;;;;78.00;49.00;;;;;7.67;64.12;102442.28;5060684;28;61886;-74
2022/01/16 04:29:21;;;;;;;;;73.33;50.33;;;;;7.66;63.81;102447.38;5061799;28;61746;-73
2022/01/16 04:31:47;;;;;;;;;56.33;45.33;;;;;7.67;64.16;102444.91;5061408;28;62368;-73
2022/01/16 04:34:12;;;;;;;;;74.67;49.33;;;;;7.69;64.25;102442.41;5061999;28;62114;-74
2022/01/16 04:36:37;;;;;;;;;68.33;45.67;;;;;7.65;63.77;102443.88;5045830;28;62015;-74
2022/01/16 04:39:09;;;;;;;;;67.67;50.00;;;;;7.60;64.07;102452.09;5041456;28;61868;-74
2022/01/16 04:44:19;;;;;;;;;69.33;49.67;;;;;7.69;64.17;102450.25;5041790;28;61939;-73
2022/01/16 04:46:46;;;;;;;;;66.67;45.00;;;;;7.63;64.15;102441.91;5055700;28;63640;-74
2022/01/16 04:49:12;;;;;;;;;64.67;50.00;;;;;7.61;64.03;102433.03;5041525;28;61877;-74
2022/01/16 04:51:38;;;;;;;;;58.33;36.00;;;;;7.62;64.17;102453.16;5041224;28;61730;-74
2022/01/16 04:54:03;;;;;;;;;75.67;49.67;;;;;7.57;64.42;102450.16;5041345;28;61743;-74
2022/01/16 04:56:29;;;;;;;;;62.67;50.00;;;;;7.61;64.42;102459.19;5040454;28;62070;-74
2022/01/16 04:58:55;;;;;;;;;67.25;49.50;;;;;7.61;64.63;102457.47;5056322;28;62078;-74
2022/01/16 05:01:21;;;;;;;;;71.25;46.25;;;;;7.34;64.53;102454.34;5056099;28;61921;-74
2022/01/16 05:03:46;;;;;;;;;63.50;42.25;;;;;7.17;65.52;102460.75;5041185;28;62115;-74
2022/01/16 05:06:12;;;;;;;;;56.50;41.00;;;;;7.22;65.34;102453.34;5042372;28;62585;-74
2022/01/16 05:08:38;;;;;;;;;56.25;40.75;;;;;7.28;65.33;102452.91;5044462;28;61900;-74
2022/01/16 05:11:06;;;;;;;;;53.25;41.00;;;;;7.30;64.71;102456.59;5044475;28;61935;-74
2022/01/16 05:18:49;;;;;;;;;53.00;41.33;;;;;7.11;65.45;102467.16;5044157;28;61877;-74
2022/01/16 05:21:15;;;;;;;;;60.50;39.50;;;;;7.05;65.73;102474.47;5044304;28;62466;-74
2022/01/16 05:23:42;;;;;;;;;64.75;42.00;;;;;7.14;65.75;102472.66;5044393;28;61883;-74
2022/01/16 05:26:08;;;;;;;;;44.33;32.33;;;;;7.19;65.76;102480.88;5043257;28;61993;-74
2022/01/16 05:28:34;;;;;;;;;55.00;40.00;;;;;7.21;65.26;102479.31;5044452;28;61919;-74
2022/01/16 05:30:59;;;;;;;;;57.00;44.00;;;;;7.21;65.55;102477.59;5043640;28;62206;-74
2022/01/16 05:33:25;;;;;;;;;51.67;38.33;;;;;7.20;66.09;102482.69;5044472;28;61933;-74
2022/01/16 05:35:50;;;;;;;;;47.67;41.00;;;;;7.29;65.63;102481.78;5051689;28;61840;-74
2022/01/16 05:38:16;;;;;;;;;53.50;41.50;;;;;7.33;65.54;102470.81;5063827;28;61949;-74
2022/01/16 05:40:43;;;;;;;;;49.33;40.67;;;;;7.37;65.40;102474.63;5064001;28;61816;-74
2022/01/16 05:43:09;;;;;;;;;50.50;39.00;;;;;7.36;65.89;102483.22;5062811;28;61919;-74
2022/01/16 05:45:34;;;;;;;;;69.67;46.00;;;;;7.38;65.88;102513.00;5061803;28;63796;-74
2022/01/16 05:48:00;;;;;;;;;55.00;42.33;;;;;7.38;65.44;102503.47;5063724;28;61986;-74
2022/01/16 05:50:26;;;;;;;;;54.75;35.75;;;;;7.36;65.43;102494.56;5064185;28;62146;-74
2022/01/16 05:52:52;;;;;;;;;48.00;36.00;;;;;7.33;65.29;102485.59;5062903;28;62080;-73
2022/01/16 05:55:18;;;;;;;;;52.25;35.50;;;;;7.37;65.46;102474.63;5062925;28;61839;-74
2022/01/16 05:57:45;;;;;;;;;57.00;33.00;;;;;7.45;65.34;102478.75;5063818;28;61865;-74
2022/01/16 06:00:13;;;;;;;;;50.50;36.00;;;;;7.50;65.34;102464.41;5061683;28;61784;-74
2022/01/16 06:02:39;;;;;;;;;49.00;33.67;;;;;7.38;65.46;102492.09;5062708;28;61800;-74
2022/01/16 06:05:06;;;;;;;;;59.67;40.67;;;;;7.41;65.89;102496.66;5063048;28;62103;-74
2022/01/16 06:07:31;;;;;;;;;34.00;24.50;;;;;7.31;66.48;102488.06;5063662;28;61971;-74
2022/01/16 06:09:57;;;;;;;;;43.00;35.00;;;;;7.34;66.09;102501.38;5063743;28;61939;-74
2022/01/16 06:12:23;;;;;;;;;44.00;37.75;;;;;7.34;66.10;102503.06;5063823;28;61766;-74
2022/01/16 06:14:48;;;;;;;;;48.25;28.50;;;;;7.34;65.88;102511.81;5061504;28;64921;-74
2022/01/16 06:17:14;;;;;;;;;46.50;30.00;;;;;7.41;65.90;102526.31;5061681;28;61786;-74
2022/01/16 06:19:40;;;;;;;;;35.50;30.75;;;;;7.45;65.87;102527.50;5062332;28;62252;-74
2022/01/16 06:22:06;;;;;;;;;43.50;32.50;;;;;7.48;65.92;102522.56;5063427;28;62178;-73
2022/01/16 06:24:31;;;;;;;;;38.75;28.00;;;;;7.41;66.02;102534.16;5062825;28;62670;-74
2022/01/16 06:26:57;;;;;;;;;41.25;33.25;;;;;7.42;66.42;102525.53;5063087;28;61974;-74
2022/01/16 06:29:23;;;;;;;;;43.50;29.50;;;;;7.44;65.94;102518.75;5063118;28;61765;-74
2022/01/16 06:31:49;;;;;;;;;35.75;26.50;;;;;7.45;65.76;102509.22;5063248;28;61876;-74
2022/01/16 06:34:15;;;;;;;;;38.75;33.25;;;;;7.49;65.79;102511.31;5062295;28;61801;-74
2022/01/16 06:36:41;;;;;;;;;40.50;27.25;;;;;7.46;66.54;102526.72;5066808;28;61946;-74
2022/01/16 06:39:09;;;;;;;;;43.00;30.00;;;;;7.48;66.44;102517.31;5063143;28;61718;-74
2022/01/16 06:41:34;;;;;;;;;41.75;30.00;;;;;7.47;66.48;102513.78;5063205;28;62012;-74
2022/01/16 06:44:00;;;;;;;;;45.25;33.25;;;;;7.49;66.32;102509.59;5061311;28;63776;-74
2022/01/16 06:46:26;;;;;;;;;46.50;28.75;;;;;7.42;66.04;102504.66;5062681;28;61930;-74
2022/01/16 06:48:52;;;;;;;;;37.75;28.75;;;;;7.46;66.59;102511.97;5063210;28;62014;-74
2022/01/16 06:51:19;;;;;;;;;34.25;28.00;;;;;7.52;66.22;102524.59;5063128;28;61932;-74
2022/01/16 06:53:45;;;;;;;;;33.50;26.25;;;;;7.58;65.81;102528.69;5062426;28;61945;-74
2022/01/16 06:56:11;;;;;;;;;40.25;24.75;;;;;7.54;66.27;102541.34;5062495;28;62126;-74
2022/01/16 06:58:36;;;;;;;;;37.25;31.25;;;;;7.50;66.21;102555.84;5062908;28;61879;-74
2022/01/16 07:01:02;;;;;;;;;45.25;30.00;;;;;7.54;66.55;102573.63;5063027;28;61706;-74
2022/01/16 07:03:27;;;;;;;;;38.00;26.75;;;;;7.57;66.47;102568.66;5061980;28;62181;-74
2022/01/16 07:05:53;;;;;;;;;32.75;23.75;;;;;7.62;65.99;102563.81;5062945;28;61774;-74
2022/01/16 07:08:22;;;;;;;;;42.75;30.00;;;;;7.66;66.04;102559.78;5062852;28;62739;-74
2022/01/16 07:10:49;;;;;;;;;35.25;26.50;;;;;7.68;66.14;102563.44;5062520;28;61754;-74
2022/01/16 07:13:14;;;;;;;;;32.50;27.50;;;;;7.71;65.80;102566.28;5077759;28;62923;-74
2022/01/16 07:15:40;;;;;;;;;40.00;26.25;;;;;7.73;65.85;102565.66;5062366;28;62051;-74
2022/01/16 07:18:05;;;;;;;;;46.00;34.75;;;;;7.73;65.73;102547.34;5078192;28;62407;-74
2022/01/16 07:20:31;;;;;;;;;34.50;26.50;;;;;7.70;65.46;102544.47;5062564;28;61726;-74
2022/01/16 07:22:56;;;;;;;;;40.00;29.25;;;;;7.76;66.00;102562.38;5061713;28;61772;-74
2022/01/16 07:25:22;;;;;;;;;28.50;21.00;;;;;7.72;65.67;102566.41;5062049;28;61744;-74
2022/01/16 07:27:47;;;;;;;;;41.50;28.00;;;;;7.78;66.36;102586.94;5062340;28;61992;-74
2022/01/16 07:30:13;;;;;;;;;42.50;34.25;;;;;7.81;66.60;102597.66;5062348;28;61739;-74
2022/01/16 07:32:39;;;;;;;;;37.00;23.25;;;;;7.77;65.88;102596.47;5061558;28;62437;-73
2022/01/16 07:35:05;;;;;;;;;31.75;25.00;;;;;7.73;65.85;102585.63;5060559;28;61797;-73
2022/01/16 07:37:30;;;;;;;;;32.50;26.25;;;;;7.79;66.04;102591.38;5041849;28;62184;-73
2022/01/16 07:39:56;;;;;;;;;40.75;29.25;;;;;7.81;66.33;102587.19;5057521;28;61999;-75
2022/01/16 07:42:21;;;;;;;;;35.00;28.25;;;;;7.83;65.82;102598.69;5040128;28;64874;-76
2022/01/16 07:44:47;;;;;;;;;39.75;27.50;;;;;7.83;66.21;102595.19;5057384;28;62237;-75
2022/01/16 07:47:12;;;;;;;;;35.25;22.50;;;;;7.89;66.17;102593.09;5042117;28;62087;-75
2022/01/16 07:49:38;;;;;;;;;37.00;23.75;;;;;7.95;65.92;102593.59;5040693;28;61957;-75
2022/01/16 07:52:04;;;;;;;;;26.75;25.00;;;;;7.98;65.94;102588.63;5041532;28;62095;-75
2022/01/16 07:54:29;;;;;;;;;32.75;25.25;;;;;8.01;66.00;102590.56;5041710;28;61802;-75
2022/01/16 07:56:55;;;;;;;;;33.00;26.25;;;;;7.97;65.80;102589.41;5041741;28;62669;-75
2022/01/16 07:59:20;;;;;;;;;30.50;22.00;;;;;7.97;65.97;102587.72;5057356;28;62296;-75
2022/01/16 08:01:45;;;;;;;;;33.00;27.75;;;;;8.02;65.90;102577.63;5041041;28;62156;-75
2022/01/16 08:04:11;;;;;;;;;30.25;25.25;;;;;8.11;65.69;102569.63;5041998;28;62093;-76
2022/01/16 08:06:37;;;;;;;;;33.50;25.75;;;;;8.15;65.78;102577.84;5041769;28;61884;-76
2022/01/16 08:09:02;;;;;;;;;39.00;31.50;;;;;8.21;65.62;102577.47;5057304;28;62029;-76
2022/01/16 08:11:28;;;;;;;;;39.25;26.25;;;;;8.27;65.80;102579.66;5041130;28;62001;-76
2022/01/16 08:13:53;;;;;;;;;40.50;26.50;;;;;8.30;65.42;102578.22;5041690;28;61923;-77
2022/01/16 08:16:19;;;;;;;;;50.25;32.50;;;;;8.39;65.78;102580.66;5056985;28;62591;-77
2022/01/16 08:18:44;;;;;;;;;35.50;33.25;;;;;8.42;65.64;102582.66;5040301;28;62157;-77
2022/01/16 08:21:09;;;;;;;;;43.75;36.00;;;;;8.43;65.43;102582.78;5041104;28;61801;-78
2022/01/16 08:23:35;;;;;;;;;34.25;31.25;;;;;8.48;64.92;102585.78;5045499;28;61908;-76
2022/01/16 08:26:03;;;;;;;;;42.50;30.25;;;;;8.48;65.17;102591.00;5049899;28;62313;-76
2022/01/16 08:28:29;;;;;;;;;40.00;30.00;;;;;8.52;64.89;102594.00;5051328;28;61962;-74
2022/01/16 08:30:55;;;;;;;;;34.50;26.75;;;;;8.55;65.42;102590.75;5055857;28;63140;-75
2022/01/16 08:33:21;;;;;;;;;39.00;30.75;;;;;8.59;65.30;102585.88;5044333;28;61797;-75
2022/01/16 08:35:47;;;;;;;;;43.00;27.00;;;;;8.65;65.44;102574.06;5047464;28;61788;-77
2022/01/16 08:38:12;;;;;;;;;52.25;33.50;;;;;8.72;65.24;102573.75;5049692;28;62342;-77
2022/01/16 08:40:38;;;;;;;;;42.75;27.00;;;;;8.75;65.08;102576.63;5057701;28;64519;-75
2022/01/16 08:43:08;;;;;;;;;44.25;30.75;;;;;8.83;64.73;102585.13;5056195;28;61796;-76
2022/01/16 08:45:36;;;;;;;;;34.75;27.00;;;;;8.93;64.84;102588.59;5071667;28;61940;-75
2022/01/16 08:48:02;;;;;;;;;35.25;26.75;;;;;9.00;65.24;102597.88;5052191;28;61888;-75
2022/01/16 08:50:27;;;;;;;;;41.25;28.75;;;;;9.04;64.07;102586.84;5048838;28;62062;-76
2022/01/16 08:52:53;;;;;;;;;35.50;25.50;;;;;9.03;64.24;102594.56;5058011;28;61924;-76
2022/01/16 08:55:19;;;;;;;;;35.75;23.75;;;;;9.04;63.85;102606.84;5045534;28;62040;-76
2022/01/16 08:57:44;;;;;;;;;32.50;26.00;;;;;9.06;64.01;102615.75;5080733;28;61780;-75
2022/01/16 09:00:10;;;;;;;;;31.50;24.50;;;;;9.06;64.39;102623.59;5063806;28;62049;-74
2022/01/16 09:02:36;;;;;;;;;30.75;23.50;;;;;9.06;63.96;102624.56;5063392;28;61981;-75
2022/01/16 09:05:02;;;;;;;;;37.25;29.00;;;;;9.08;64.20;102617.69;5064519;28;61890;-75
2022/01/16 09:07:28;;;;;;;;;24.75;22.75;;;;;9.14;64.33;102618.19;5064305;28;61951;-76
2022/01/16 09:09:54;;;;;;;;;41.50;26.50;;;;;9.17;63.57;102617.53;5058016;28;62584;-75
2022/01/16 09:12:19;;;;;;;;;34.75;22.50;;;;;9.16;64.09;102615.69;5055297;28;61864;-75
2022/01/16 09:14:45;;;;;;;;;31.00;23.00;;;;;9.21;64.23;102619.59;5057031;28;61825;-76
2022/01/16 09:17:11;;;;;;;;;40.00;24.25;;;;;9.11;63.53;102615.34;5048276;28;61707;-76
2022/01/16 09:19:42;;;;;;;;;32.50;23.50;;;;;9.11;63.80;102624.91;5049038;28;62303;-76
2022/01/16 09:22:08;;;;;;;;;39.25;27.75;;;;;9.08;63.66;102630.78;5068482;28;61992;-74
2022/01/16 09:24:34;;;;;;;;;19.25;12.25;;;;;9.10;64.07;102637.06;5060241;28;63339;-76
2022/01/16 09:27:00;;;;;;;;;32.50;20.75;;;;;9.18;63.99;102635.06;5055794;28;61951;-75
2022/01/16 09:29:25;;;;;;;;;25.25;23.00;;;;;9.27;63.46;102627.03;5058338;28;63099;-74
2022/01/16 09:31:51;;;;;;;;;37.50;31.00;;;;;9.33;63.66;102630.16;5054510;28;62286;-73
2022/01/16 09:34:16;;;;;;;;;28.75;23.50;;;;;9.45;63.53;102638.03;5063713;28;61880;-74
2022/01/16 09:36:41;;;;;;;;;30.00;21.50;;;;;9.49;62.56;102640.13;5050807;28;62166;-74
2022/01/16 09:39:11;;;;;;;;;28.00;23.00;;;;;9.52;62.62;102648.25;5043000;28;61604;-76
2022/01/16 09:41:40;;;;;;;;;25.25;19.75;;;;;9.44;63.04;102645.00;5043105;28;62181;-74
2022/01/16 09:44:06;;;;;;;;;31.00;18.75;;;;;9.42;63.64;102643.97;5065863;28;61859;-74
2022/01/16 09:46:31;;;;;;;;;28.75;20.50;;;;;9.47;62.56;102636.47;5063574;28;62242;-73
2022/01/16 09:48:57;;;;;;;;;24.25;17.00;;;;;9.57;62.82;102637.28;5053691;28;61739;-73
2022/01/16 09:51:22;;;;;;;;;30.00;25.75;;;;;9.70;62.88;102638.25;5046403;28;62197;-76
2022/01/16 09:53:48;;;;;;;;;31.50;22.75;;;;;9.83;61.35;102641.03;5049111;28;61758;-74
2022/01/16 09:56:14;;;;;;;;;32.00;20.75;;;;;10.02;61.70;102646.00;5051071;28;61898;-74
2022/01/16 09:58:41;;;;;;;;;39.50;24.50;;;;;10.16;61.31;102660.19;5050730;28;62802;-75
2022/01/16 10:01:07;;;;;;;;;23.50;18.00;;;;;10.24;61.26;102657.34;5058993;28;62381;-74
2022/01/16 10:03:35;;;;;;;;;25.00;21.00;;;;;10.30;61.03;102658.63;5044534;28;61806;-74
2022/01/16 10:06:21;;;;;;;;;30.50;25.75;;;;;10.33;60.76;102644.03;5063671;28;61808;-75
2022/01/16 10:08:49;;;;;;;;;32.50;24.00;;;;;10.34;60.35;102640.59;5078631;28;64223;-73
2022/01/16 10:11:20;;;;;;;;;21.50;20.75;;;;;10.24;60.59;102646.84;5063211;28;61882;-74
2022/01/16 10:14:13;;;;;;;;;35.75;26.75;;;;;10.17;61.29;102648.88;5062287;28;62151;-75
2022/01/16 10:16:40;;;;;;;;;29.50;24.50;;;;;10.10;61.26;102642.25;5063463;28;62482;-78
2022/01/16 10:19:27;;;;;;;;;27.75;20.50;;;;;9.98;61.53;102637.00;5057236;28;62591;-76
2022/01/16 10:21:54;;;;;;;;;29.00;20.00;;;;;9.99;61.95;102623.06;5056592;28;62186;-77
2022/01/16 10:24:29;;;;;;;;;25.00;17.75;;;;;10.17;61.19;102654.13;5054907;28;62011;-78
2022/01/16 10:27:07;;;;;;;;;28.25;22.50;;;;;10.27;61.64;102655.75;5051390;28;61923;-77
2022/01/16 10:29:38;;;;;;;;;28.25;21.25;;;;;10.34;61.56;102643.22;5053468;28;61928;-77
2022/01/16 10:32:14;;;;;;;;;26.00;22.00;;;;;10.36;61.34;102636.38;5052387;28;61864;-77
2022/01/16 10:34:40;;;;;;;;;25.25;21.25;;;;;10.28;61.62;102644.44;5048612;28;62028;-77
2022/01/16 10:37:21;;;;;;;;;33.50;18.25;;;;;10.23;61.24;102652.88;5050608;28;62152;-77
2022/01/16 10:40:10;;;;;;;;;25.75;20.75;;;;;10.30;61.80;102663.88;5055447;28;62713;-76
2022/01/16 10:42:39;;;;;;;;;23.50;20.50;;;;;10.38;61.71;102658.41;5052486;28;61944;-76
2022/01/16 10:45:07;;;;;;;;;21.00;17.00;;;;;10.42;61.10;102656.94;5048624;28;62281;-76
2022/01/16 10:47:44;;;;;;;;;25.75;21.50;;;;;10.51;61.55;102644.47;5068840;28;61933;-78
2022/01/16 10:50:19;;;;;;;;;19.75;16.75;;;;;10.59;61.27;102640.72;5065451;28;65132;-78
2022/01/16 10:52:58;;;;;;;;;26.50;22.00;;;;;10.61;61.37;102627.72;5050883;28;62110;-78
2022/01/16 10:55:47;;;;;;;;;22.75;19.75;;;;;10.72;61.22;102639.00;5064118;28;61956;-78
2022/01/16 10:58:14;;;;;;;;;28.25;18.75;;;;;10.82;61.11;102644.13;5051823;28;62283;-78
2022/01/16 11:00:43;;;;;;;;;31.00;22.00;;;;;10.93;60.98;102643.19;5064659;28;63585;-78
2022/01/16 11:03:11;;;;;;;;;32.00;21.00;;;;;11.00;60.61;102645.47;5050092;28;61837;-78
2022/01/16 11:05:46;;;;;;;;;30.25;18.00;;;;;10.94;60.71;102633.59;5064874;28;61960;-77
2022/01/16 11:08:33;;;;;;;;;23.00;19.25;;;;;10.92;60.50;102637.81;5048766;28;61911;-77
2022/01/16 11:11:03;;;;;;;;;34.00;21.50;;;;;10.90;60.52;102645.59;5050203;28;63289;-78
2022/01/16 11:13:32;;;;;;;;;23.50;17.75;;;;;10.95;60.99;102644.22;5048670;28;61910;-76
2022/01/16 11:16:04;;;;;;;;;27.25;20.00;;;;;11.05;60.94;102653.66;5052875;28;61929;-77
2022/01/16 11:18:31;;;;;;;;;20.75;18.00;;;;;11.09;60.25;102639.94;5047679;28;61952;-76
2022/01/16 11:21:07;;;;;;;;;23.50;22.75;;;;;11.16;60.15;102636.03;5049726;28;62374;-77
2022/01/16 11:23:48;;;;;;;;;30.25;19.00;;;;;11.21;60.38;102639.94;5051424;28;61786;-79
2022/01/16 11:26:15;;;;;;;;;25.50;19.75;;;;;11.50;59.53;102646.34;5052200;28;61944;-78
2022/01/16 11:28:41;;;;;;;;;26.75;21.50;;;;;11.73;59.51;102653.22;5053933;28;61732;-76
2022/01/16 11:31:10;;;;;;;;;26.50;21.75;;;;;11.98;59.18;102645.34;5048389;28;63113;-75
2022/01/16 11:33:37;;;;;;;;;26.25;19.00;;;;;12.02;58.55;102650.91;5058599;28;62069;-74
2022/01/16 11:36:07;;;;;;;;;26.50;21.75;;;;;11.98;58.20;102663.78;5056819;28;61742;-75
2022/01/16 11:38:41;;;;;;;;;36.00;21.50;;;;;11.94;58.48;102661.72;5077355;27;62249;-75
2022/01/16 11:41:14;;;;;;;;;25.25;20.75;;;;;12.07;59.21;102657.41;5060973;28;62839;-75
2022/01/16 11:43:40;;;;;;;;;19.00;16.00;;;;;11.92;59.17;102659.00;5051852;28;61886;-75
2022/01/16 11:46:19;;;;;;;;;30.25;23.50;;;;;11.76;59.46;102650.78;5048970;28;62135;-76
2022/01/16 11:48:50;;;;;;;;;28.25;21.25;;;;;11.64;59.66;102649.13;5051535;28;61814;-76
2022/01/16 11:51:39;;;;;;;;;28.50;15.50;;;;;11.52;59.96;102655.25;5065702;28;64657;-74
2022/01/16 11:54:04;;;;;;;;;26.50;19.00;;;;;11.42;60.46;102637.94;5052374;28;62220;-75
2022/01/16 11:56:39;;;;;;;;;26.25;21.25;;;;;11.41;60.29;102642.25;5059808;28;61900;-73
2022/01/16 11:59:18;;;;;;;;;17.75;17.00;;;;;11.36;60.28;102629.59;5053009;28;61816;-75
2022/01/16 12:01:52;;;;;;;;;19.25;17.25;;;;;11.26;61.18;102622.78;5045659;28;62897;-73
2022/01/16 12:04:30;;;;;;;;;25.00;19.00;;;;;11.37;61.10;102629.69;5059941;28;61994;-73
2022/01/16 12:07:06;;;;;;;;;27.00;22.75;;;;;11.30;60.45;102626.53;5061598;28;62292;-73